Time;durP1;ratioP1;P1;durP2;ratioP2;P2;SDS_P1;SDS_P2;PMS_P1;PMS_P2;Temp;Humidity;BMP_temperature;BMP_pressure;BME280_temperature;BME280_humidity;BME280_pressure;Samples;Min_cycle;Max_cycle;Signal;HPM_P1;HPM_P2
2022/06/25 00:01:32;;;;;;;3.28;3.08;;;20.10;80.80;;;;;;5052652;28;20324;-74
2022/06/25 00:03:58;;;;;;;3.95;3.30;;;20.10;80.50;;;;;;5045622;28;20273;-74
2022/06/25 00:06:24;;;;;;;3.72;3.50;;;20.10;81.80;;;;;;5049678;28;20921;-75
2022/06/25 00:08:50;;;;;;;3.15;2.90;;;20.10;81.60;;;;;;5044586;28;20267;-75
2022/06/25 00:14:09;;;;;;;3.50;3.30;;;20.10;80.60;;;;;;5050558;28;20384;-75
2022/06/25 00:16:35;;;;;;;3.20;2.97;;;20.10;82.50;;;;;;5049309;28;20643;-75
2022/06/25 00:19:02;;;;;;;3.83;3.50;;;20.10;82.30;;;;;;5049850;28;20290;-75
2022/06/25 00:21:28;;;;;;;4.32;3.97;;;20.00;82.60;;;;;;5055511;28;20194;-75
2022/06/25 00:23:54;;;;;;;3.65;3.55;;;20.00;82.70;;;;;;5051496;28;20183;-75
2022/06/25 00:26:20;;;;;;;3.05;2.95;;;19.90;81.40;;;;;;5052776;28;20193;-75
2022/06/25 00:28:46;;;;;;;6.45;3.17;;;19.80;82.10;;;;;;5058394;28;20192;-75
2022/06/25 00:31:11;;;;;;;2.80;2.65;;;19.80;83.00;;;;;;5052155;28;20661;-75
2022/06/25 00:33:37;;;;;;;2.75;2.67;;;19.70;83.40;;;;;;5053164;28;20195;-75
2022/06/25 00:36:03;;;;;;;3.40;2.95;;;19.70;82.70;;;;;;5047941;28;20199;-75
2022/06/25 00:38:28;;;;;;;3.67;3.38;;;19.60;82.40;;;;;;5051249;28;20198;-74
2022/06/25 00:40:54;;;;;;;3.70;3.08;;;19.60;82.00;;;;;;5049754;28;20215;-74
2022/06/25 00:43:20;;;;;;;4.70;2.80;;;19.60;82.00;;;;;;5045590;28;20318;-74
2022/06/25 00:45:47;;;;;;;2.63;2.53;;;19.60;82.20;;;;;;5052282;28;20187;-74
2022/06/25 00:48:13;;;;;;;3.30;3.10;;;19.60;83.60;;;;;;5049024;28;20178;-74
2022/06/25 00:50:39;;;;;;;3.10;3.00;;;19.60;82.80;;;;;;5049517;28;20187;-73
2022/06/25 00:53:05;;;;;;;2.88;2.75;;;19.60;83.60;;;;;;5050211;28;20187;-74
2022/06/25 00:55:31;;;;;;;3.05;2.85;;;19.60;84.60;;;;;;5051169;28;20180;-75
2022/06/25 00:58:01;;;;;;;2.47;2.28;;;19.50;83.70;;;;;;5046853;28;20258;-74
2022/06/25 01:00:27;;;;;;;4.85;3.00;;;19.50;82.90;;;;;;5037872;28;20211;-75
2022/06/25 01:02:53;;;;;;;2.60;2.50;;;19.40;83.00;;;;;;5048698;28;20619;-76
2022/06/25 01:05:19;;;;;;;3.20;2.92;;;19.40;82.70;;;;;;5047448;28;20264;-76
2022/06/25 01:07:47;;;;;;;2.55;2.45;;;19.40;82.40;;;;;;5050264;28;20214;-76
2022/06/25 01:10:13;;;;;;;3.08;2.88;;;19.40;82.40;;;;;;5041448;28;20610;-76
2022/06/25 01:12:39;;;;;;;2.40;2.30;;;19.50;82.50;;;;;;5052445;28;20218;-76
2022/06/25 01:15:17;;;;;;;3.22;3.08;;;19.50;82.40;;;;;;5055031;28;20923;-76
2022/06/25 01:17:51;;;;;;;2.90;2.70;;;19.50;82.10;;;;;;5049422;28;20196;-76
2022/06/25 01:20:19;;;;;;;2.83;2.72;;;19.50;82.10;;;;;;5053749;28;20642;-76
2022/06/25 01:22:45;;;;;;;3.33;3.08;;;19.50;82.10;;;;;;5049564;28;20191;-76
2022/06/25 01:25:12;;;;;;;4.75;3.30;;;19.50;82.50;;;;;;5052856;28;20242;-76
2022/06/25 01:27:38;;;;;;;6.82;3.42;;;19.50;82.80;;;;;;5048674;28;20798;-76
2022/06/25 01:30:06;;;;;;;3.17;3.05;;;19.50;82.30;;;;;;5054691;28;20196;-75
2022/06/25 01:32:32;;;;;;;3.58;3.17;;;19.50;82.50;;;;;;5051930;28;20188;-75
2022/06/25 01:34:57;;;;;;;3.00;2.80;;;19.50;82.10;;;;;;5055510;28;20248;-75
2022/06/25 01:37:23;;;;;;;4.00;3.70;;;19.50;82.10;;;;;;5048726;28;20235;-75
2022/06/25 01:39:53;;;;;;;3.20;3.00;;;19.50;81.60;;;;;;5051923;28;20214;-75
2022/06/25 01:45:03;;;;;;;3.33;3.13;;;19.60;82.60;;;;;;5052196;28;20222;-75
2022/06/25 01:47:29;;;;;;;3.45;3.35;;;19.60;83.00;;;;;;5049253;28;20184;-75
2022/06/25 01:49:55;;;;;;;2.92;2.83;;;19.60;83.40;;;;;;5052436;28;20183;-75
2022/06/25 01:52:20;;;;;;;2.92;2.83;;;19.60;82.90;;;;;;5046712;28;20182;-75
2022/06/25 01:54:46;;;;;;;3.28;3.08;;;19.60;83.10;;;;;;5055242;28;20224;-75
2022/06/25 01:57:12;;;;;;;4.00;2.70;;;19.60;83.40;;;;;;5043175;28;20217;-75
2022/06/25 01:59:37;;;;;;;4.05;2.40;;;19.50;83.80;;;;;;5044473;28;20222;-74
2022/06/25 02:02:03;;;;;;;3.33;3.05;;;19.50;83.40;;;;;;5046973;28;20187;-74
2022/06/25 02:04:29;;;;;;;4.00;3.70;;;19.40;82.50;;;;;;5052946;28;20229;-74
2022/06/25 02:06:54;;;;;;;5.20;3.40;;;19.40;83.10;;;;;;5048908;28;20217;-75
2022/06/25 02:09:20;;;;;;;5.45;3.90;;;19.40;83.40;;;;;;5052278;28;20192;-75
2022/06/25 02:11:46;;;;;;;2.92;2.72;;;19.40;83.90;;;;;;5046469;28;20640;-76
2022/06/25 02:14:11;;;;;;;2.70;2.60;;;19.40;83.20;;;;;;5050049;28;20202;-75
2022/06/25 02:16:37;;;;;;;2.33;2.25;;;19.40;83.30;;;;;;5047412;28;20659;-76
2022/06/25 02:19:02;;;;;;;4.00;2.55;;;19.40;83.80;;;;;;5051751;28;20272;-75
2022/06/25 02:21:29;;;;;;;2.45;2.25;;;19.40;83.60;;;;;;5042504;28;20206;-74
2022/06/25 02:23:56;;;;;;;2.20;2.10;;;19.40;83.20;;;;;;5049016;28;20234;-74
2022/06/25 02:26:21;;;;;;;2.67;2.10;;;19.30;83.10;;;;;;5044989;28;20179;-74
2022/06/25 02:28:47;;;;;;;2.90;2.70;;;19.40;83.10;;;;;;5046069;28;20194;-74
2022/06/25 02:31:13;;;;;;;2.72;2.63;;;19.30;82.10;;;;;;5047263;28;21034;-75
2022/06/25 02:33:39;;;;;;;3.35;3.05;;;19.30;83.00;;;;;;5048037;28;20202;-75
2022/06/25 02:36:07;;;;;;;2.53;2.33;;;19.30;82.80;;;;;;5047927;28;20188;-75
2022/06/25 02:38:33;;;;;;;3.05;2.85;;;19.30;81.70;;;;;;5046232;28;20183;-75
2022/06/25 02:40:59;;;;;;;3.90;3.00;;;19.30;82.10;;;;;;5051888;28;20269;-75
2022/06/25 02:43:25;;;;;;;2.35;2.30;;;19.30;81.80;;;;;;5045412;28;20770;-75
2022/06/25 02:45:51;;;;;;;3.17;3.00;;;19.30;82.30;;;;;;5043773;28;20184;-75
2022/06/25 02:48:17;;;;;;;3.08;2.78;;;19.30;82.20;;;;;;5048788;28;20244;-75
2022/06/25 02:50:42;;;;;;;4.65;2.35;;;19.30;83.70;;;;;;5044921;28;20199;-75
2022/06/25 02:53:08;;;;;;;3.40;2.65;;;19.30;82.80;;;;;;5053297;28;20179;-75
2022/06/25 03:01:02;;;;;;;2.60;2.40;;;19.30;83.50;;;;;;5042304;28;20587;-75
2022/06/25 03:03:28;;;;;;;2.45;2.35;;;19.30;83.30;;;;;;5044553;28;20741;-75
2022/06/25 03:05:54;;;;;;;2.28;2.28;;;19.20;83.20;;;;;;5052119;28;21036;-75
2022/06/25 03:08:19;;;;;;;3.88;2.58;;;19.20;83.80;;;;;;5045177;28;20187;-75
2022/06/25 03:10:45;;;;;;;2.58;2.55;;;19.20;83.40;;;;;;5046553;28;20266;-75
2022/06/25 03:13:11;;;;;;;2.35;2.03;;;19.20;82.50;;;;;;5039890;28;20183;-75
2022/06/25 03:15:37;;;;;;;1.98;1.98;;;19.20;83.40;;;;;;5047164;28;20309;-74
2022/06/25 03:18:03;;;;;;;2.35;2.17;;;19.20;84.00;;;;;;5045803;28;20639;-75
2022/06/25 03:20:29;;;;;;;2.53;2.20;;;19.20;83.70;;;;;;5048938;28;20240;-75
2022/06/25 03:22:55;;;;;;;2.78;2.60;;;19.20;82.80;;;;;;5046139;28;20244;-75
2022/06/25 03:25:21;;;;;;;2.03;2.03;;;19.20;82.20;;;;;;5046939;28;20175;-75
2022/06/25 03:27:47;;;;;;;2.35;2.35;;;19.20;82.60;;;;;;5055043;28;20175;-75
2022/06/25 03:30:13;;;;;;;7.50;3.35;;;19.20;83.80;;;;;;5048023;28;20180;-75
2022/06/25 03:32:38;;;;;;;3.05;2.97;;;19.30;84.10;;;;;;5048821;28;20187;-75
2022/06/25 03:35:05;;;;;;;2.83;2.72;;;19.20;83.20;;;;;;5047866;28;20605;-74
2022/06/25 03:37:30;;;;;;;5.35;3.17;;;19.30;84.00;;;;;;5047777;28;20191;-75
2022/06/25 03:39:56;;;;;;;2.42;2.33;;;19.20;83.30;;;;;;5048956;28;20662;-74
2022/06/25 03:42:21;;;;;;;2.28;2.05;;;19.20;82.50;;;;;;5035367;28;20597;-75
2022/06/25 03:44:47;;;;;;;2.50;2.45;;;19.30;82.80;;;;;;5050319;28;20188;-75
2022/06/25 03:47:13;;;;;;;2.92;2.75;;;19.30;82.50;;;;;;5046914;28;20218;-75
2022/06/25 03:49:38;;;;;;;2.67;2.58;;;19.40;82.20;;;;;;5047671;28;20199;-75
2022/06/25 03:52:04;;;;;;;2.38;2.28;;;19.40;81.90;;;;;;5052114;28;20179;-75
2022/06/25 03:54:30;;;;;;;2.15;2.00;;;19.50;81.80;;;;;;5051281;28;20265;-75
2022/06/25 03:56:56;;;;;;;2.50;2.38;;;19.50;81.90;;;;;;5038118;28;20246;-74
2022/06/25 03:59:21;;;;;;;2.78;2.67;;;19.60;81.70;;;;;;5048014;28;20218;-76
2022/06/25 04:01:47;;;;;;;2.63;2.53;;;19.70;83.70;;;;;;5042904;28;20826;-77
2022/06/25 04:04:13;;;;;;;2.97;2.88;;;19.70;83.50;;;;;;5044864;28;20182;-76
2022/06/25 04:06:38;;;;;;;2.60;2.50;;;19.70;83.00;;;;;;5047315;28;20184;-75
2022/06/25 04:09:04;;;;;;;2.50;2.40;;;19.80;82.50;;;;;;5051264;28;20187;-75
2022/06/25 04:11:30;;;;;;;3.75;3.05;;;19.80;83.20;;;;;;5050858;28;20195;-76
2022/06/25 04:13:56;;;;;;;3.15;3.05;;;19.80;83.40;;;;;;5047302;28;20195;-75
2022/06/25 04:16:22;;;;;;;2.70;2.60;;;19.90;82.40;;;;;;5045813;28;20187;-76
2022/06/25 04:18:48;;;;;;;2.75;2.65;;;19.90;81.90;;;;;;5049446;28;20179;-76
2022/06/25 04:21:14;;;;;;;2.00;1.90;;;19.90;82.00;;;;;;5050775;28;20183;-76
2022/06/25 04:23:40;;;;;;;2.85;2.75;;;20.00;82.70;;;;;;5046838;28;20190;-74
2022/06/25 04:26:06;;;;;;;3.13;2.92;;;20.00;81.70;;;;;;5045979;28;20817;-74
2022/06/25 04:31:16;;;;;;;3.13;3.03;;;20.10;82.10;;;;;;5052067;28;20229;-75
2022/06/25 04:33:42;;;;;;;3.85;2.97;;;20.10;83.00;;;;;;5049277;28;20449;-75
2022/06/25 04:36:11;;;;;;;2.50;2.35;;;20.10;82.00;;;;;;5056607;28;20213;-76
2022/06/25 04:38:37;;;;;;;2.47;2.28;;;20.20;81.90;;;;;;5047831;28;20627;-75
2022/06/25 04:41:02;;;;;;;2.75;2.55;;;20.20;81.80;;;;;;5050014;28;20280;-75
2022/06/25 04:43:28;;;;;;;2.92;2.72;;;20.30;82.10;;;;;;5052783;28;20279;-75
2022/06/25 04:45:54;;;;;;;2.92;2.83;;;20.30;81.50;;;;;;5052074;28;20172;-75
2022/06/25 04:48:19;;;;;;;2.45;2.45;;;20.30;81.50;;;;;;5041462;28;20638;-74
2022/06/25 04:50:46;;;;;;;2.70;2.55;;;20.30;82.00;;;;;;5055355;28;20655;-76
2022/06/25 04:53:12;;;;;;;2.53;2.42;;;20.40;83.60;;;;;;5045365;28;20231;-74
2022/06/25 04:55:38;;;;;;;5.30;2.88;;;20.50;83.00;;;;;;5047093;28;20223;-75
2022/06/25 04:58:04;;;;;;;2.55;2.47;;;20.50;82.30;;;;;;5051370;28;20219;-75
2022/06/25 05:00:29;;;;;;;2.50;2.40;;;20.50;83.10;;;;;;5052398;28;20217;-74
2022/06/25 05:02:55;;;;;;;3.10;2.90;;;20.50;82.90;;;;;;5047563;28;20249;-75
2022/06/25 05:05:21;;;;;;;2.97;2.85;;;20.60;83.60;;;;;;5050544;28;20187;-75
2022/06/25 05:07:46;;;;;;;2.85;2.75;;;20.60;82.90;;;;;;5048426;28;20267;-75
2022/06/25 05:10:12;;;;;;;3.55;3.45;;;20.60;82.20;;;;;;5044295;28;20210;-75
2022/06/25 05:15:22;;;;;;;3.17;3.08;;;20.60;82.10;;;;;;5052413;28;20593;-75
2022/06/25 05:17:48;;;;;;;3.40;3.28;;;20.60;82.00;;;;;;5051746;28;20179;-75
2022/06/25 05:20:14;;;;;;;3.30;3.20;;;20.70;81.70;;;;;;5047776;28;20207;-75
2022/06/25 05:22:39;;;;;;;4.22;3.65;;;20.80;83.10;;;;;;5053352;28;20194;-74
2022/06/25 05:25:06;;;;;;;3.65;3.35;;;20.80;82.80;;;;;;5056855;28;20633;-75
2022/06/25 05:27:32;;;;;;;3.22;3.03;;;20.90;82.40;;;;;;5052087;28;20180;-74
2022/06/25 05:29:57;;;;;;;3.50;3.40;;;20.90;82.80;;;;;;5045387;28;20179;-75
2022/06/25 05:32:26;;;;;;;3.30;3.10;;;21.00;83.20;;;;;;5049841;28;20246;-74
2022/06/25 05:34:51;;;;;;;5.07;3.08;;;21.10;83.10;;;;;;5051408;28;20253;-75
2022/06/25 05:37:17;;;;;;;2.90;2.80;;;21.10;82.70;;;;;;5053545;28;20191;-74
2022/06/25 05:39:43;;;;;;;2.97;2.88;;;21.20;82.30;;;;;;5047126;28;21076;-75
2022/06/25 05:42:09;;;;;;;3.05;2.85;;;;;;;;;;5051609;28;20265;-75
2022/06/25 05:44:35;;;;;;;3.10;3.00;;;21.20;82.30;;;;;;5049563;28;20187;-75
2022/06/25 05:47:00;;;;;;;3.33;3.15;;;21.20;82.40;;;;;;5046523;28;20183;-73
2022/06/25 05:49:26;;;;;;;3.03;2.85;;;21.20;82.40;;;;;;5048725;28;20191;-74
2022/06/25 05:51:52;;;;;;;4.22;3.20;;;21.20;82.50;;;;;;5047825;28;20648;-74
2022/06/25 05:54:17;;;;;;;3.65;3.45;;;21.10;82.10;;;;;;5053102;28;20184;-75
2022/06/25 05:56:43;;;;;;;3.35;3.25;;;21.10;82.30;;;;;;5047625;28;20180;-74
2022/06/25 05:59:08;;;;;;;3.40;3.30;;;21.10;82.10;;;;;;5045109;28;20219;-74
2022/06/25 06:01:34;;;;;;;3.33;3.08;;;21.00;82.50;;;;;;5044530;28;20269;-75
2022/06/25 06:04:00;;;;;;;3.60;3.40;;;21.00;82.60;;;;;;5049834;28;20874;-74
2022/06/25 06:06:25;;;;;;;3.53;3.22;;;20.90;82.20;;;;;;5043256;28;20189;-74
2022/06/25 06:08:51;;;;;;;2.60;2.50;;;21.00;82.80;;;;;;5049035;28;20184;-74
2022/06/25 06:11:17;;;;;;;3.35;3.25;;;21.00;82.50;;;;;;5051175;28;20575;-74
2022/06/25 06:13:42;;;;;;;3.65;3.45;;;21.00;82.60;;;;;;5049788;28;20712;-75
2022/06/25 06:16:08;;;;;;;3.20;3.03;;;21.10;82.40;;;;;;5044922;28;20303;-75
2022/06/25 06:18:34;;;;;;;3.08;2.97;;;21.10;82.50;;;;;;5044412;28;20187;-75
2022/06/25 06:20:59;;;;;;;3.20;3.10;;;21.20;82.40;;;;;;5049170;28;20293;-75
2022/06/25 06:23:25;;;;;;;2.97;2.88;;;21.20;82.50;;;;;;5046224;28;20191;-74
2022/06/25 06:25:51;;;;;;;2.75;2.70;;;21.20;82.20;;;;;;5044994;28;20187;-74
2022/06/25 06:28:16;;;;;;;3.67;3.47;;;21.30;82.40;;;;;;5046378;28;20277;-74
2022/06/25 06:30:42;;;;;;;3.42;3.25;;;21.40;82.40;;;;;;5043382;28;20192;-75
2022/06/25 06:33:09;;;;;;;3.70;3.47;;;21.40;82.60;;;;;;5052038;28;20616;-75
2022/06/25 06:35:35;;;;;;;3.13;3.03;;;21.50;82.50;;;;;;5044543;28;20278;-75
2022/06/25 06:38:00;;;;;;;2.90;2.67;;;21.50;82.30;;;;;;5051790;28;20327;-74
2022/06/25 06:40:26;;;;;;;2.47;2.38;;;21.60;82.10;;;;;;5051456;28;20659;-74
2022/06/25 06:42:52;;;;;;;3.03;2.92;;;21.70;82.30;;;;;;5053717;28;20182;-75
2022/06/25 06:45:17;;;;;;;2.58;2.47;;;21.70;82.00;;;;;;5042690;28;20290;-74
2022/06/25 06:47:43;;;;;;;3.08;2.88;;;21.80;82.00;;;;;;5046787;28;20323;-75
2022/06/25 06:50:10;;;;;;;3.50;3.30;;;21.90;81.80;;;;;;5051001;28;20240;-74
2022/06/25 06:52:36;;;;;;;2.95;2.85;;;21.90;82.00;;;;;;5047062;28;20203;-75
2022/06/25 06:55:04;;;;;;;3.70;3.58;;;22.00;81.60;;;;;;5049120;28;20719;-76
2022/06/25 06:57:34;;;;;;;3.17;3.05;;;22.00;81.00;;;;;;5053221;28;20183;-74
2022/06/25 07:00:04;;;;;;;2.40;2.40;;;22.10;81.10;;;;;;5050402;28;21237;-75
2022/06/25 07:02:32;;;;;;;2.40;2.40;;;22.10;81.00;;;;;;5047298;28;20241;-74
2022/06/25 07:04:58;;;;;;;2.70;2.60;;;22.20;81.20;;;;;;5041264;28;20197;-73
2022/06/25 07:07:23;;;;;;;3.03;2.92;;;22.30;81.00;;;;;;5043053;28;20187;-73
2022/06/25 07:09:49;;;;;;;2.33;2.22;;;22.30;80.90;;;;;;5042803;28;20317;-73
2022/06/25 07:12:15;;;;;;;3.53;3.42;;;22.40;80.60;;;;;;5045617;28;20195;-73
2022/06/25 07:14:42;;;;;;;2.50;2.40;;;22.50;80.40;;;;;;5042654;28;20226;-73
2022/06/25 07:17:08;;;;;;;2.95;2.85;;;22.50;80.10;;;;;;5047134;28;20719;-73
2022/06/25 07:19:34;;;;;;;3.28;3.13;;;22.60;79.50;;;;;;5043529;28;20231;-74
2022/06/25 07:22:00;;;;;;;3.10;2.90;;;22.50;78.20;;;;;;5040510;28;20184;-73
2022/06/25 07:24:26;;;;;;;2.75;2.40;;;22.60;78.90;;;;;;5042903;28;20178;-74
2022/06/25 07:26:52;;;;;;;2.15;2.15;;;22.70;79.00;;;;;;5034222;28;20191;-73
2022/06/25 07:29:18;;;;;;;2.53;2.53;;;22.70;79.00;;;;;;5037225;28;20194;-76
2022/06/25 07:31:43;;;;;;;2.58;2.40;;;22.80;79.00;;;;;;5050071;28;21008;-73
2022/06/25 07:34:09;;;;;;;2.85;2.65;;;22.90;78.90;;;;;;5044938;28;20167;-73
2022/06/25 07:36:35;;;;;;;3.30;3.20;;;22.90;78.90;;;;;;5046671;28;20194;-78
2022/06/25 07:39:02;;;;;;;2.95;2.85;;;23.00;78.20;;;;;;5042731;28;20214;-80
2022/06/25 07:41:28;;;;;;;3.58;3.30;;;23.10;78.00;;;;;;5038406;28;20176;-78
2022/06/25 07:43:54;;;;;;;4.43;3.58;;;23.20;77.20;;;;;;5046903;28;20209;-76
2022/06/25 07:46:20;;;;;;;3.22;2.97;;;23.10;78.30;;;;;;5050666;28;20186;-74
2022/06/25 07:48:46;;;;;;;3.30;2.97;;;23.10;77.50;;;;;;5044928;28;20245;-74
2022/06/25 07:53:57;;;;;;;3.17;2.97;;;23.30;78.20;;;;;;5044528;28;20274;-77
2022/06/25 07:56:23;;;;;;;4.45;3.15;;;23.40;78.30;;;;;;5041103;28;20180;-77
2022/06/25 07:58:49;;;;;;;3.35;3.25;;;23.50;78.20;;;;;;5044705;28;20572;-75
2022/06/25 08:01:15;;;;;;;3.92;2.60;;;23.50;78.10;;;;;;5047772;28;20215;-78
2022/06/25 08:03:41;;;;;;;3.30;3.17;;;23.70;78.30;;;;;;5046226;28;20203;-77
2022/06/25 08:06:07;;;;;;;3.72;3.38;;;23.80;77.10;;;;;;5053054;28;20715;-77
2022/06/25 08:08:33;;;;;;;3.92;3.63;;;23.90;77.10;;;;;;5056021;28;20329;-77
2022/06/25 08:10:59;;;;;;;3.28;3.17;;;24.00;76.60;;;;;;5049920;28;20269;-76
2022/06/25 08:13:26;;;;;;;4.00;2.88;;;24.00;76.80;;;;;;5055076;28;20194;-75
2022/06/25 08:15:52;;;;;;;2.97;2.78;;;24.10;76.80;;;;;;5048993;28;20181;-75
2022/06/25 08:18:19;;;;;;;3.58;3.47;;;24.20;77.00;;;;;;5049242;28;20262;-74
2022/06/25 08:20:45;;;;;;;3.88;3.78;;;24.30;76.80;;;;;;5045642;28;20326;-74
2022/06/25 08:23:11;;;;;;;3.22;2.97;;;24.40;76.60;;;;;;5051752;28;20674;-73
2022/06/25 08:25:36;;;;;;;3.38;3.28;;;24.40;76.80;;;;;;5044487;28;20187;-74
2022/06/25 08:28:02;;;;;;;3.05;2.80;;;24.50;76.50;;;;;;5049668;28;20288;-74
2022/06/25 08:30:28;;;;;;;3.63;3.42;;;24.70;76.40;;;;;;5041406;28;20213;-74
2022/06/25 08:32:55;;;;;;;4.13;3.25;;;24.80;76.00;;;;;;5042905;28;20175;-74
2022/06/25 08:35:22;;;;;;;3.05;2.95;;;24.90;75.80;;;;;;5049552;28;20236;-75
2022/06/25 08:37:49;;;;;;;3.47;3.03;;;25.00;76.10;;;;;;5051645;28;20183;-75
2022/06/25 08:40:20;;;;;;;5.75;3.72;;;25.00;76.20;;;;;;5051358;28;20590;-75
2022/06/25 08:42:48;;;;;;;3.25;3.08;;;25.10;75.90;;;;;;5047023;28;20663;-75
2022/06/25 08:45:18;;;;;;;3.00;2.88;;;25.20;76.30;;;;;;5047662;28;20230;-76
2022/06/25 08:47:46;;;;;;;4.32;3.80;;;25.30;75.20;;;;;;5045536;28;20294;-75
2022/06/25 08:50:14;;;;;;;3.58;3.35;;;25.30;75.10;;;;;;5045123;28;20187;-75
2022/06/25 08:52:49;;;;;;;3.65;3.45;;;25.50;74.60;;;;;;5044318;28;20261;-76
2022/06/25 08:55:32;;;;;;;3.50;3.17;;;25.60;74.20;;;;;;5039954;28;20649;-72
2022/06/25 08:58:00;;;;;;;3.13;2.92;;;25.70;74.50;;;;;;5045493;28;20183;-71
2022/06/25 09:00:26;;;;;;;4.32;4.03;;;25.90;73.70;;;;;;5062479;28;20544;-72
2022/06/25 09:02:52;;;;;;;6.60;3.75;;;26.00;72.40;;;;;;5043644;28;20191;-72
2022/06/25 09:05:32;;;;;;;4.10;3.83;;;26.10;72.30;;;;;;5030771;28;20548;-71
2022/06/25 09:08:06;;;;;;;3.42;3.17;;;26.20;73.20;;;;;;5054471;28;20179;-70
2022/06/25 09:10:33;;;;;;;3.80;3.60;;;26.30;73.10;;;;;;5043933;28;20206;-71
2022/06/25 09:13:01;;;;;;;4.03;3.83;;;26.40;73.40;;;;;;5046836;28;20183;-72
2022/06/25 09:15:29;;;;;;;4.30;3.90;;;26.50;73.40;;;;;;5048196;28;20252;-71
2022/06/25 09:17:55;;;;;;;3.90;3.70;;;26.70;72.80;;;;;;5045903;28;20175;-71
2022/06/25 09:20:22;;;;;;;3.85;3.58;;;26.70;73.40;;;;;;5047594;28;20257;-72
2022/06/25 09:23:05;;;;;;;4.18;3.88;;;26.90;73.40;;;;;;5048656;28;20179;-72
2022/06/25 09:25:33;;;;;;;3.63;3.53;;;27.00;73.20;;;;;;5048377;28;20633;-72
2022/06/25 09:28:00;;;;;;;4.18;4.03;;;27.20;72.20;;;;;;5048969;28;20183;-72
2022/06/25 09:30:31;;;;;;;4.88;4.45;;;27.30;72.50;;;;;;5038288;28;20590;-72
2022/06/25 09:33:01;;;;;;;5.35;4.80;;;27.50;71.90;;;;;;5048405;28;20201;-72
2022/06/25 09:35:40;;;;;;;5.20;4.30;;;27.60;71.80;;;;;;5052429;28;20183;-72
2022/06/25 09:38:12;;;;;;;4.38;4.13;;;27.80;70.50;;;;;;5042819;28;20187;-72
2022/06/25 09:40:39;;;;;;;4.57;4.30;;;27.90;70.00;;;;;;5046383;28;20220;-75
2022/06/25 09:43:15;;;;;;;5.13;4.50;;;28.00;70.30;;;;;;5044981;28;20279;-72
2022/06/25 09:45:47;;;;;;;4.20;4.00;;;28.10;69.80;;;;;;5041259;28;20175;-72
2022/06/25 09:48:33;;;;;;;4.30;4.00;;;28.30;69.60;;;;;;5049996;28;20211;-72
2022/06/25 09:51:10;;;;;;;4.75;4.30;;;28.50;70.20;;;;;;5048598;28;20206;-72
2022/06/25 09:53:58;;;;;;;4.63;4.22;;;28.70;70.00;;;;;;5036711;28;20245;-72
2022/06/25 09:56:28;;;;;;;4.57;4.28;;;28.80;69.40;;;;;;5053043;28;20211;-72
2022/06/25 09:58:55;;;;;;;5.72;4.25;;;29.00;68.80;;;;;;5039426;28;20206;-72
2022/06/25 10:01:27;;;;;;;5.45;4.93;;;29.20;68.70;;;;;;5048093;28;20215;-72
2022/06/25 10:03:53;;;;;;;6.50;4.25;;;29.30;65.90;;;;;;5045831;28;20187;-73
2022/06/25 10:06:21;;;;;;;7.82;5.10;;;29.20;65.90;;;;;;5042528;28;20652;-73
2022/06/25 10:08:54;;;;;;;8.35;5.30;;;29.20;66.50;;;;;;5034147;28;20278;-73
2022/06/25 10:11:23;;;;;;;4.88;4.50;;;29.30;66.70;;;;;;5049392;28;20191;-73
2022/06/25 10:13:51;;;;;;;4.68;4.28;;;29.40;66.40;;;;;;5044286;28;20237;-73
2022/06/25 10:16:20;;;;;;;6.20;4.70;;;29.40;64.30;;;;;;5048845;28;20179;-71
2022/06/25 10:18:48;;;;;;;4.28;3.88;;;29.50;65.10;;;;;;5046678;28;20185;-73
2022/06/25 10:21:14;;;;;;;6.05;3.45;;;29.50;64.70;;;;;;5044417;28;20298;-73
2022/06/25 10:23:41;;;;;;;7.15;3.92;;;29.60;64.40;;;;;;5037110;28;20191;-73
2022/06/25 10:26:08;;;;;;;5.70;4.13;;;29.60;63.90;;;;;;5044686;28;20265;-73
2022/06/25 10:28:35;;;;;;;7.63;4.07;;;29.80;64.70;;;;;;5033544;28;20288;-73
2022/06/25 10:31:06;;;;;;;6.65;4.25;;;29.80;64.20;;;;;;5043039;28;20269;-73
2022/06/25 10:33:53;;;;;;;4.53;4.13;;;30.00;64.10;;;;;;5047035;28;20179;-72
2022/06/25 10:36:48;;;;;;;4.90;4.30;;;30.30;63.10;;;;;;5043513;28;20531;-73
2022/06/25 10:39:40;;;;;;;6.50;3.78;;;30.50;62.70;;;;;;5039485;28;20187;-74
2022/06/25 10:45:18;;;;;;;3.75;3.42;;;30.90;62.20;;;;;;5034528;28;20224;-73
2022/06/25 10:47:54;;;;;;;6.18;4.30;;;31.40;61.00;;;;;;5038111;28;20282;-75
2022/06/25 10:50:22;;;;;;;5.03;4.63;;;31.80;60.50;;;;;;5039275;28;20194;-74
2022/06/25 10:53:03;;;;;;;4.47;4.13;;;32.10;60.70;;;;;;5033232;28;20265;-72
2022/06/25 10:55:30;;;;;;;10.20;4.78;;;32.60;59.50;;;;;;5037419;28;20194;-76
2022/06/25 10:58:22;;;;;;;8.13;3.95;;;33.00;59.10;;;;;;5038919;28;20861;-77
2022/06/25 11:00:53;;;;;;;4.10;3.90;;;33.70;58.90;;;;;;5040113;28;20215;-77
2022/06/25 11:03:28;;;;;;;4.97;3.75;;;34.30;58.50;;;;;;5044447;28;20323;-77
2022/06/25 11:05:56;;;;;;;3.35;3.22;;;34.90;56.20;;;;;;5037936;28;20340;-77
2022/06/25 11:08:23;;;;;;;5.70;3.40;;;35.20;54.50;;;;;;5039484;28;20827;-76
2022/06/25 11:10:49;;;;;;;8.70;4.03;;;35.30;56.20;;;;;;5034284;28;20665;-78
2022/06/25 11:13:15;;;;;;;4.18;3.78;;;35.50;54.90;;;;;;5037168;28;20191;-84
2022/06/25 11:15:43;;;;;;;9.20;3.30;;;36.00;55.90;;;;;;5041260;28;20684;-78
2022/06/25 11:18:11;;;;;;;4.55;3.33;;;36.50;55.70;;;;;;5040684;28;20311;-79
2022/06/25 11:20:38;;;;;;;5.50;3.33;;;36.70;54.50;;;;;;5039231;28;20215;-78
2022/06/25 11:23:04;;;;;;;4.22;3.50;;;37.10;52.60;;;;;;5037504;28;20260;-75
2022/06/25 11:28:47;;;;;;;3.30;3.10;;;37.40;51.90;;;;;;5047351;28;20638;-74
2022/06/25 11:31:18;;;;;;;3.95;3.58;;;37.30;55.10;;;;;;5045442;28;20179;-73
2022/06/25 11:33:46;;;;;;;5.97;3.40;;;37.50;52.60;;;;;;5039578;28;20568;-73
2022/06/25 11:36:13;;;;;;;5.32;3.83;;;37.30;52.30;;;;;;5051755;28;20642;-74
2022/06/25 11:38:51;;;;;;;4.30;3.25;;;37.00;53.00;;;;;;5055575;28;20273;-74
2022/06/25 11:41:27;;;;;;;4.72;3.20;;;36.80;53.50;;;;;;5053711;28;21140;-75
2022/06/25 11:43:54;;;;;;;4.85;3.80;;;36.80;55.40;;;;;;5050909;28;20998;-75
2022/06/25 11:46:20;;;;;;;4.30;2.88;;;37.20;53.80;;;;;;5052818;28;20218;-74
2022/06/25 11:48:47;;;;;;;3.30;3.08;;;37.60;52.80;;;;;;5054143;28;20722;-75
2022/06/25 11:51:14;;;;;;;5.88;3.72;;;37.60;52.20;;;;;;5051641;28;20261;-75
2022/06/25 11:53:41;;;;;;;6.35;4.22;;;37.60;53.20;;;;;;5053197;28;20191;-75
2022/06/25 11:56:07;;;;;;;3.88;3.63;;;37.50;52.30;;;;;;5049778;28;20189;-74
2022/06/25 11:58:35;;;;;;;3.72;3.33;;;37.40;53.50;;;;;;5055433;28;20684;-74
2022/06/25 12:01:03;;;;;;;6.40;3.78;;;37.50;54.00;;;;;;5054478;28;20211;-75
2022/06/25 12:03:30;;;;;;;7.45;4.00;;;37.70;53.30;;;;;;5053309;28;20197;-75
2022/06/25 12:05:58;;;;;;;3.70;3.13;;;38.10;52.20;;;;;;5052746;28;20214;-75
2022/06/25 12:08:25;;;;;;;3.15;2.80;;;38.30;51.80;;;;;;5047770;28;20469;-75
2022/06/25 12:10:52;;;;;;;3.55;2.95;;;38.80;50.40;;;;;;5048025;28;20273;-75
2022/06/25 12:13:18;;;;;;;6.18;3.28;;;39.00;49.90;;;;;;5054057;28;20193;-74
2022/06/25 12:15:44;;;;;;;6.18;3.17;;;39.10;49.80;;;;;;5052127;28;20628;-75
2022/06/25 12:18:10;;;;;;;4.05;3.22;;;39.30;51.50;;;;;;5053889;28;20179;-74
2022/06/25 12:20:56;;;;;;;3.72;3.42;;;39.00;51.30;;;;;;5048624;28;20295;-75
2022/06/25 12:23:22;;;;;;;3.45;3.17;;;38.80;52.00;;;;;;5056079;28;20189;-75
2022/06/25 12:25:48;;;;;;;6.75;3.78;;;39.00;52.70;;;;;;5043326;28;20935;-75
2022/06/25 12:28:15;;;;;;;3.22;3.03;;;39.20;53.20;;;;;;5052409;28;20174;-75
2022/06/25 12:30:42;;;;;;;3.58;3.15;;;39.50;52.60;;;;;;5051887;28;20209;-75
2022/06/25 12:33:14;;;;;;;3.95;3.22;;;39.80;52.20;;;;;;5049909;28;20191;-76
2022/06/25 12:35:42;;;;;;;4.10;3.65;;;40.10;52.50;;;;;;5049699;28;20215;-75
2022/06/25 12:38:09;;;;;;;3.85;3.50;;;40.30;51.10;;;;;;5051741;28;20182;-75
2022/06/25 12:40:45;;;;;;;6.88;4.10;;;40.20;50.60;;;;;;5045511;28;20215;-76
2022/06/25 12:43:12;;;;;;;6.10;4.55;;;40.20;51.90;;;;;;5050833;28;20761;-75
2022/06/25 12:45:39;;;;;;;4.70;4.18;;;39.80;51.10;;;;;;5048001;28;20198;-75
2022/06/25 12:48:07;;;;;;;6.60;3.42;;;39.40;53.30;;;;;;5045683;28;20265;-74
2022/06/25 12:50:34;;;;;;;4.07;3.13;;;38.90;53.30;;;;;;5049428;28;20236;-74
2022/06/25 12:53:08;;;;;;;3.63;3.25;;;38.30;52.80;;;;;;5039906;28;20533;-75
2022/06/25 12:55:33;;;;;;;5.60;3.05;;;37.90;52.10;;;;;;5055200;28;20891;-75
2022/06/25 12:58:12;;;;;;;4.97;2.67;;;37.30;52.90;;;;;;5041437;28;20183;-74
2022/06/25 13:00:39;;;;;;;2.67;2.40;;;36.80;53.60;;;;;;5051809;28;20210;-74
2022/06/25 13:03:06;;;;;;;4.97;2.53;;;36.30;54.30;;;;;;5044578;28;20717;-75
2022/06/25 13:05:33;;;;;;;3.50;2.70;;;35.80;54.40;;;;;;5047532;28;20557;-74
2022/06/25 13:08:01;;;;;;;4.72;2.72;;;35.50;54.50;;;;;;5051122;28;20178;-75
2022/06/25 13:10:27;;;;;;;4.05;2.38;;;35.40;55.50;;;;;;5040015;28;20272;-74
2022/06/25 13:12:53;;;;;;;2.60;2.40;;;35.40;55.10;;;;;;5054623;28;20215;-75
2022/06/25 13:15:21;;;;;;;2.65;2.33;;;35.50;55.60;;;;;;5049496;28;20187;-75